createdAt,value
2019-05-20T00:01:28.254Z,95346.23
2019-05-20T00:03:58.530Z,95351.80
2019-05-20T00:06:28.374Z,95352.16
2019-05-20T00:08:58.231Z,95350.88
2019-05-20T00:11:28.213Z,95353.47
2019-05-20T00:13:58.286Z,95354.91
2019-05-20T00:16:28.113Z,95360.04
2019-05-20T00:18:57.985Z,95352.92
2019-05-20T00:21:27.985Z,95355.62
2019-05-20T00:23:57.896Z,95354.18
2019-05-20T00:26:27.748Z,95350.59
2019-05-20T00:28:57.668Z,95350.30
2019-05-20T00:31:27.747Z,95342.88
2019-05-20T00:33:57.652Z,95343.84
2019-05-20T00:36:27.532Z,95338.20
2019-05-20T00:39:17.021Z,95334.53
2019-05-20T00:41:47.193Z,95328.63
2019-05-20T00:44:17.443Z,95318.48
2019-05-20T00:46:47.480Z,95313.87
2019-05-20T00:49:17.721Z,95309.72
2019-05-20T00:51:49.414Z,95303.64
2019-05-20T00:54:19.536Z,95301.91
2019-05-20T00:56:52.131Z,95299.18
2019-05-20T00:59:22.202Z,95300.41
2019-05-20T01:01:52.400Z,95306.27
2019-05-20T01:04:22.315Z,95308.11
2019-05-20T01:06:52.279Z,95310.20
2019-05-20T01:09:22.297Z,95310.41
2019-05-20T01:11:52.639Z,95301.07
2019-05-20T01:14:25.789Z,95302.09
2019-05-20T01:16:55.661Z,95307.45
2019-05-20T01:19:25.626Z,95303.92
2019-05-20T01:21:55.556Z,95309.72
2019-05-20T01:24:25.443Z,95300.36
2019-05-20T01:26:55.281Z,95305.69
2019-05-20T01:29:25.140Z,95300.20
2019-05-20T01:31:55.065Z,95303.23
2019-05-20T01:34:25.045Z,95293.06
2019-05-20T01:36:54.984Z,95291.11
2019-05-20T01:39:25.037Z,95293.81
2019-05-20T01:41:54.932Z,95293.16
2019-05-20T01:44:24.813Z,95287.03
2019-05-20T01:46:54.667Z,95290.71
2019-05-20T01:49:24.682Z,95289.44
2019-05-20T01:51:54.615Z,95297.14
2019-05-20T01:54:24.578Z,95291.64
2019-05-20T01:56:54.552Z,95286.59
2019-05-20T01:59:24.677Z,95281.89
2019-05-20T02:01:54.574Z,95287.01
2019-05-20T02:04:24.542Z,95294.44
2019-05-20T02:06:54.614Z,95285.48
2019-05-20T02:09:24.484Z,95291.62
2019-05-20T02:11:54.336Z,95290.78
2019-05-20T02:14:25.959Z,95286.01
2019-05-20T02:16:55.965Z,95290.50
2019-05-20T02:19:25.809Z,95287.70
2019-05-20T02:21:56.160Z,95283.27
2019-05-20T02:24:26.406Z,95285.97
2019-05-20T02:26:56.241Z,95279.44
2019-05-20T02:29:26.259Z,95282.47
2019-05-20T02:31:56.453Z,95290.66
2019-05-20T02:34:26.549Z,95293.19
2019-05-20T02:36:56.667Z,95289.44
2019-05-20T02:39:26.956Z,95292.14
2019-05-20T02:41:57.006Z,95290.48
2019-05-20T02:44:26.943Z,95296.58
2019-05-20T02:46:56.881Z,95292.80
2019-05-20T02:49:26.753Z,95293.91
2019-05-20T02:51:56.679Z,95291.76
2019-05-20T02:54:26.730Z,95290.47
2019-05-20T02:56:56.710Z,95290.91
2019-05-20T02:59:26.588Z,95297.54
2019-05-20T03:01:56.515Z,95295.55
2019-05-20T03:04:26.730Z,95290.22
2019-05-20T03:06:57.638Z,95295.36
2019-05-20T03:09:27.505Z,95298.08
2019-05-20T03:11:57.444Z,95299.55
2019-05-20T03:14:27.314Z,95301.18
2019-05-20T03:16:57.332Z,95300.89
2019-05-20T03:19:27.343Z,95298.80
2019-05-20T03:21:57.223Z,95296.08
2019-05-20T03:24:27.145Z,95298.37
2019-05-20T03:26:57.028Z,95296.88
2019-05-20T03:29:26.978Z,95296.70
2019-05-20T03:31:57.339Z,95301.35
2019-05-20T03:34:45.692Z,95293.84
2019-05-20T03:36:59.362Z,95288.41
2019-05-20T03:39:29.498Z,95293.50
2019-05-20T03:41:59.379Z,95295.69
2019-05-20T03:44:29.234Z,95287.67
2019-05-20T03:46:59.120Z,95282.47
2019-05-20T03:49:29.107Z,95285.52
2019-05-20T03:51:59.015Z,95283.58
2019-05-20T03:54:29.120Z,95289.75
2019-05-20T03:56:59.057Z,95282.71
2019-05-20T03:59:29.089Z,95285.48
2019-05-20T04:01:59.086Z,95282.98
2019-05-20T04:04:29.014Z,95288.38
2019-05-20T04:06:59.126Z,95283.08
2019-05-20T04:09:29.107Z,95282.16
2019-05-20T04:11:58.973Z,95298.73
2019-05-20T04:14:28.831Z,95288.81
2019-05-20T04:16:58.807Z,95296.66
2019-05-20T04:19:28.725Z,95290.34
2019-05-20T04:21:58.586Z,95286.58
2019-05-20T04:24:28.506Z,95293.45
2019-05-20T04:27:01.656Z,95282.05
2019-05-20T04:29:31.692Z,95283.71
2019-05-20T04:32:01.583Z,95283.63
2019-05-20T04:34:32.092Z,95282.87
2019-05-20T04:37:02.040Z,95281.19
2019-05-20T04:39:32.177Z,95276.92
2019-05-20T04:42:06.266Z,95276.24
2019-05-20T04:44:37.272Z,95274.52
2019-05-20T04:47:07.697Z,95278.47
2019-05-20T04:49:38.084Z,95278.05
2019-05-20T04:52:08.903Z,95277.45
2019-05-20T04:54:43.289Z,95285.45
2019-05-20T04:57:13.761Z,95282.30
2019-05-20T04:59:43.765Z,95283.34
2019-05-20T05:02:14.213Z,95282.95
2019-05-20T05:04:44.432Z,95290.48
2019-05-20T05:07:17.562Z,95285.07
2019-05-20T05:09:50.791Z,95289.23
2019-05-20T05:12:21.137Z,95294.34
2019-05-20T05:14:51.877Z,95300.78
2019-05-20T05:17:25.272Z,95300.72
2019-05-20T05:19:55.651Z,95303.39
2019-05-20T05:22:27.231Z,95308.20
2019-05-20T05:24:57.276Z,95303.23
2019-05-20T05:27:27.312Z,95310.00
2019-05-20T05:29:57.412Z,95312.55
2019-05-20T05:32:42.983Z,95302.31
2019-05-20T05:35:16.066Z,95300.77
2019-05-20T05:37:48.176Z,95301.69
2019-05-20T05:40:18.914Z,95299.83
2019-05-20T05:42:55.653Z,95301.86
2019-05-20T05:45:31.827Z,95305.22
2019-05-20T05:48:12.994Z,95303.23
2019-05-20T05:50:42.972Z,95310.60
2019-05-20T05:53:13.111Z,95303.31
2019-05-20T05:55:43.331Z,95303.80
2019-05-20T05:58:13.348Z,95303.43
2019-05-20T06:00:43.303Z,95308.11
2019-05-20T06:03:13.297Z,95305.81
2019-05-20T06:05:43.622Z,95306.89
2019-05-20T06:08:13.743Z,95305.20
2019-05-20T06:10:43.945Z,95303.20
2019-05-20T06:13:13.887Z,95308.72
2019-05-20T06:15:44.386Z,95308.52
2019-05-20T06:18:14.498Z,95310.89
2019-05-20T06:20:46.542Z,95305.83
2019-05-20T06:23:16.592Z,95305.16
2019-05-20T06:25:46.564Z,95305.71
2019-05-20T06:28:16.542Z,95307.43
2019-05-20T06:30:48.140Z,95313.21
2019-05-20T06:33:18.286Z,95317.70
2019-05-20T06:35:49.169Z,95311.70
2019-05-20T06:38:39.491Z,95314.88
2019-05-20T06:41:09.960Z,95320.36
2019-05-20T06:43:40.945Z,95323.83
2019-05-20T06:46:12.378Z,95323.58
2019-05-20T06:48:42.316Z,95329.78
2019-05-20T06:51:12.275Z,95327.13
2019-05-20T06:53:42.688Z,95335.55
2019-05-20T06:56:14.275Z,95339.17
2019-05-20T06:58:45.913Z,95337.00
2019-05-20T07:01:15.913Z,95337.77
2019-05-20T07:03:45.957Z,95341.31
2019-05-20T07:06:16.184Z,95338.52
2019-05-20T07:08:46.154Z,95346.42
2019-05-20T07:11:16.118Z,95341.61
2019-05-20T07:13:46.235Z,95341.23
2019-05-20T07:16:16.167Z,95339.56
2019-05-20T07:18:46.223Z,95343.13
2019-05-20T07:21:16.352Z,95341.20
2019-05-20T07:23:46.238Z,95341.67
2019-05-20T07:26:16.195Z,95341.68
2019-05-20T07:28:46.134Z,95345.58
2019-05-20T07:31:16.023Z,95347.34
2019-05-20T07:33:47.730Z,95346.70
2019-05-20T07:36:17.730Z,95349.77
2019-05-20T07:38:47.692Z,95349.97
2019-05-20T07:41:17.743Z,95351.75
2019-05-20T07:43:48.052Z,95351.35
2019-05-20T07:46:18.718Z,95346.48
2019-05-20T07:48:50.099Z,95354.84
2019-05-20T07:51:21.440Z,95347.07
2019-05-20T07:53:52.202Z,95352.78
2019-05-20T07:56:27.435Z,95360.13
2019-05-20T07:59:02.267Z,95352.90
2019-05-20T08:01:32.425Z,95349.77
2019-05-20T08:04:02.775Z,95355.02
2019-05-20T08:06:32.823Z,95356.38
2019-05-20T08:09:02.728Z,95356.09
2019-05-20T08:11:32.663Z,95356.50
2019-05-20T08:14:02.882Z,95355.61
2019-05-20T08:16:33.231Z,95353.75
2019-05-20T08:19:03.439Z,95349.00
2019-05-20T08:21:33.493Z,95344.89
2019-05-20T08:24:03.727Z,95339.80
2019-05-20T08:26:34.306Z,95344.13
2019-05-20T08:29:04.958Z,95349.73
2019-05-20T08:31:34.912Z,95352.18
2019-05-20T08:34:05.116Z,95357.92
2019-05-20T08:36:35.494Z,95362.78
2019-05-20T08:39:07.835Z,95361.51
2019-05-20T08:41:38.606Z,95364.38
2019-05-20T08:44:10.604Z,95364.66
2019-05-20T08:46:40.667Z,95359.29
2019-05-20T08:49:11.725Z,95363.33
2019-05-20T08:51:42.081Z,95367.58
2019-05-20T08:54:12.072Z,95377.93
2019-05-20T08:56:42.261Z,95380.52
2019-05-20T08:59:12.264Z,95383.42
2019-05-20T09:01:42.892Z,95382.94
2019-05-20T09:04:12.846Z,95389.58
2019-05-20T09:06:43.345Z,95388.27
2019-05-20T09:09:17.117Z,95384.65
2019-05-20T09:11:48.075Z,95384.78
2019-05-20T09:14:18.188Z,95386.49
2019-05-20T09:16:48.147Z,95390.51
2019-05-20T09:19:18.228Z,95382.80
2019-05-20T09:21:48.937Z,95387.88
2019-05-20T09:24:19.298Z,95387.43
2019-05-20T09:26:50.179Z,95382.86
2019-05-20T09:29:20.122Z,95383.86
2019-05-20T09:31:50.398Z,95390.36
2019-05-20T09:34:20.582Z,95387.34
2019-05-20T09:36:50.590Z,95397.16
2019-05-20T09:39:20.754Z,95398.02
2019-05-20T09:41:51.305Z,95398.07
2019-05-20T09:44:21.652Z,95396.97
2019-05-20T09:46:51.559Z,95396.80
2019-05-20T09:49:21.488Z,95402.30
2019-05-20T09:51:51.352Z,95404.41
2019-05-20T09:54:21.474Z,95394.41
2019-05-20T09:56:51.929Z,95394.14
2019-05-20T09:59:21.942Z,95394.33
2019-05-20T10:01:51.982Z,95398.06
2019-05-20T10:04:21.978Z,95394.48
2019-05-20T10:06:51.984Z,95401.03
2019-05-20T10:09:21.911Z,95412.46
2019-05-20T10:11:52.910Z,95417.52
2019-05-20T10:14:22.875Z,95411.44
2019-05-20T10:16:53.155Z,95416.53
2019-05-20T10:19:23.002Z,95413.66
2019-05-20T10:21:53.040Z,95418.88
2019-05-20T10:24:22.996Z,95417.92
2019-05-20T10:26:53.108Z,95424.37
2019-05-20T10:29:23.043Z,95425.77
2019-05-20T10:31:53.252Z,95422.25
2019-05-20T10:34:23.126Z,95421.28
2019-05-20T10:36:53.017Z,95429.39
2019-05-20T10:39:22.873Z,95428.28
2019-05-20T10:41:53.064Z,95433.78
2019-05-20T10:44:22.932Z,95441.00
2019-05-20T10:46:52.867Z,95441.55
2019-05-20T10:49:22.808Z,95436.09
2019-05-20T10:51:52.786Z,95439.69
2019-05-20T10:54:22.654Z,95440.22
2019-05-20T10:56:52.616Z,95439.97
2019-05-20T10:59:22.526Z,95441.47
2019-05-20T11:01:52.409Z,95439.08
2019-05-20T11:04:22.348Z,95440.73
2019-05-20T11:06:52.290Z,95446.41
2019-05-20T11:09:22.267Z,95446.92
2019-05-20T11:11:52.175Z,95447.44
2019-05-20T11:14:22.404Z,95446.19
2019-05-20T11:16:52.540Z,95449.95
2019-05-20T11:19:22.433Z,95456.13
2019-05-20T11:21:52.631Z,95456.20
2019-05-20T11:24:22.520Z,95458.02
2019-05-20T11:26:52.495Z,95454.28
2019-05-20T11:29:22.375Z,95459.98
2019-05-20T11:31:52.247Z,95459.83
2019-05-20T11:34:22.125Z,95465.64
2019-05-20T11:36:52.115Z,95460.94
2019-05-20T11:39:32.544Z,95457.84
2019-05-20T11:41:54.577Z,95462.64
2019-05-20T11:44:24.653Z,95458.58
2019-05-20T11:46:54.952Z,95460.81
2019-05-20T11:49:28.858Z,95458.08
2019-05-20T11:51:56.533Z,95461.79
2019-05-20T11:54:26.414Z,95461.34
2019-05-20T11:56:56.605Z,95461.16
2019-05-20T11:59:26.510Z,95456.13
2019-05-20T12:01:56.416Z,95455.78
2019-05-20T12:04:26.292Z,95454.48
2019-05-20T12:06:56.251Z,95457.17
2019-05-20T12:09:26.162Z,95456.88
2019-05-20T12:11:56.333Z,95449.54
2019-05-20T12:14:26.210Z,95458.73
2019-05-20T12:16:56.062Z,95452.81
2019-05-20T12:19:25.944Z,95457.94
2019-05-20T12:21:56.225Z,95461.94
2019-05-20T12:24:26.350Z,95458.36
2019-05-20T12:26:56.199Z,95462.02
2019-05-20T12:29:26.087Z,95460.00
2019-05-20T12:31:56.045Z,95461.59
2019-05-20T12:34:25.933Z,95461.19
2019-05-20T12:36:55.787Z,95462.41
2019-05-20T12:39:25.704Z,95460.78
2019-05-20T12:41:55.729Z,95459.46
2019-05-20T12:44:26.170Z,95455.41
2019-05-20T12:46:56.126Z,95456.19
2019-05-20T12:49:26.236Z,95458.91
2019-05-20T12:51:56.497Z,95454.51
2019-05-20T12:54:26.376Z,95449.92
2019-05-20T12:56:56.489Z,95447.41
2019-05-20T12:59:26.440Z,95450.24
2019-05-20T13:01:56.331Z,95454.08
2019-05-20T13:04:26.274Z,95451.63
2019-05-20T13:06:56.526Z,95448.41
2019-05-20T13:09:26.474Z,95447.87
2019-05-20T13:11:56.389Z,95450.37
2019-05-20T13:14:26.265Z,95450.56
2019-05-20T13:16:56.143Z,95453.71
2019-05-20T13:19:26.044Z,95445.92
2019-05-20T13:21:56.239Z,95449.27
2019-05-20T13:24:26.175Z,95446.61
2019-05-20T13:26:56.323Z,95446.99
2019-05-20T13:29:26.189Z,95447.70
2019-05-20T13:31:56.061Z,95446.36
2019-05-20T13:34:26.039Z,95447.86
2019-05-20T13:36:55.953Z,95449.71
2019-05-20T13:39:25.817Z,95443.35
2019-05-20T13:41:56.090Z,95435.38
2019-05-20T13:44:26.428Z,95440.09
2019-05-20T13:46:56.317Z,95438.45
2019-05-20T13:49:26.198Z,95442.14
2019-05-20T13:51:56.116Z,95443.08
2019-05-20T13:54:26.143Z,95440.93
2019-05-20T13:56:56.916Z,95440.42
2019-05-20T13:59:26.800Z,95438.30
2019-05-20T14:01:57.070Z,95435.08
2019-05-20T14:04:27.028Z,95436.33
2019-05-20T14:06:57.413Z,95430.31
2019-05-20T14:09:27.516Z,95434.33
2019-05-20T14:11:57.463Z,95429.69
2019-05-20T14:14:27.329Z,95428.72
2019-05-20T14:16:57.193Z,95431.27
2019-05-20T14:19:27.141Z,95433.82
2019-05-20T14:21:57.309Z,95433.65
2019-05-20T14:24:27.284Z,95430.98
2019-05-20T14:26:57.157Z,95431.88
2019-05-20T14:29:27.100Z,95426.38
2019-05-20T14:31:57.004Z,95423.08
2019-05-20T14:34:26.877Z,95425.88
2019-05-20T14:36:56.788Z,95423.47
2019-05-20T14:39:26.760Z,95422.16
2019-05-20T14:41:56.707Z,95426.03
2019-05-20T14:44:26.572Z,95429.23
2019-05-20T14:46:56.527Z,95426.13
2019-05-20T14:49:26.401Z,95428.84
2019-05-20T14:51:56.374Z,95429.81
2019-05-20T14:54:26.224Z,95432.34
2019-05-20T14:56:56.181Z,95433.16
2019-05-20T14:59:26.214Z,95432.83
2019-05-20T15:01:56.100Z,95438.02
2019-05-20T15:04:26.098Z,95439.05
2019-05-20T15:06:56.308Z,95437.97
2019-05-20T15:09:26.310Z,95440.20
2019-05-20T15:11:56.190Z,95442.73
2019-05-20T15:14:26.300Z,95443.07
2019-05-20T15:16:56.403Z,95441.42
2019-05-20T15:19:26.527Z,95444.20
2019-05-20T15:21:56.575Z,95444.57
2019-05-20T15:24:26.433Z,95450.93
2019-05-20T15:26:56.342Z,95450.92
2019-05-20T15:29:28.378Z,95450.34
2019-05-20T15:31:57.890Z,95455.41
2019-05-20T15:34:28.247Z,95457.19
2019-05-20T15:36:58.282Z,95452.66
2019-05-20T15:39:28.191Z,95458.06
2019-05-20T15:41:58.397Z,95453.28
2019-05-20T15:44:28.319Z,95457.39
2019-05-20T15:46:58.476Z,95460.72
2019-05-20T15:49:29.364Z,95463.42
2019-05-20T15:51:59.244Z,95460.02
2019-05-20T15:54:29.131Z,95458.42
2019-05-20T15:56:59.211Z,95461.84
2019-05-20T15:59:44.985Z,95456.69
2019-05-20T16:02:01.131Z,95463.35
2019-05-20T16:04:34.833Z,95458.87
2019-05-20T16:07:04.994Z,95460.57
2019-05-20T16:09:34.953Z,95462.88
2019-05-20T16:12:04.999Z,95468.83
2019-05-20T16:14:34.911Z,95471.63
2019-05-20T16:17:04.865Z,95472.15
2019-05-20T16:19:34.849Z,95469.76
2019-05-20T16:22:04.978Z,95475.30
2019-05-20T16:24:35.293Z,95473.86
2019-05-20T16:27:05.297Z,95477.73
2019-05-20T16:29:35.260Z,95472.38
2019-05-20T16:32:06.738Z,95470.09
2019-05-20T16:34:37.028Z,95467.87
2019-05-20T16:37:07.382Z,95469.71
2019-05-20T16:39:37.649Z,95468.27
2019-05-20T16:42:35.773Z,95471.19
2019-05-20T16:45:42.904Z,95471.14
2019-05-20T16:48:14.718Z,95472.55
2019-05-20T16:50:45.263Z,95476.78
2019-05-20T16:53:21.486Z,95475.31
2019-05-20T16:55:51.684Z,95475.22
2019-05-20T16:58:21.996Z,95477.80
2019-05-20T17:00:51.922Z,95478.61
2019-05-20T17:03:22.902Z,95475.61
2019-05-20T17:05:52.748Z,95477.17
2019-05-20T17:08:22.724Z,95479.46
2019-05-20T17:10:52.831Z,95480.33
2019-05-20T17:13:22.746Z,95483.46
2019-05-20T17:15:52.806Z,95472.98
2019-05-20T17:18:23.209Z,95474.66
2019-05-20T17:20:53.250Z,95475.22
2019-05-20T17:23:23.178Z,95481.23
2019-05-20T17:25:53.194Z,95478.23
2019-05-20T17:28:23.073Z,95476.84
2019-05-20T17:30:53.174Z,95479.14
2019-05-20T17:33:23.369Z,95477.59
2019-05-20T17:35:53.486Z,95478.93
2019-05-20T17:38:23.511Z,95478.81
2019-05-20T17:40:53.606Z,95477.52
2019-05-20T17:43:26.963Z,95486.02
2019-05-20T17:45:57.107Z,95479.11
2019-05-20T17:48:29.939Z,95477.23
2019-05-20T17:51:02.012Z,95479.72
2019-05-20T17:53:33.360Z,95485.77
2019-05-20T17:56:23.772Z,95488.08
2019-05-20T17:59:06.323Z,95487.23
2019-05-20T18:01:40.145Z,95483.23
2019-05-20T18:04:10.331Z,95487.88
2019-05-20T18:06:40.413Z,95495.00
2019-05-20T18:09:17.487Z,95498.80
2019-05-20T18:11:50.594Z,95494.55
2019-05-20T18:14:20.495Z,95500.95
2019-05-20T18:16:50.435Z,95506.75
2019-05-20T18:19:20.379Z,95503.37
2019-05-20T18:21:50.338Z,95502.84
2019-05-20T18:24:20.407Z,95508.27
2019-05-20T18:26:50.372Z,95515.30
2019-05-20T18:29:20.414Z,95519.07
2019-05-20T18:31:50.645Z,95512.35
2019-05-20T18:34:20.825Z,95515.69
2019-05-20T18:36:50.861Z,95517.56
2019-05-20T18:39:21.070Z,95510.50
2019-05-20T18:41:51.194Z,95516.08
2019-05-20T18:44:35.184Z,95516.63
2019-05-20T18:46:56.845Z,95513.27
2019-05-20T18:49:26.709Z,95509.27
2019-05-20T18:51:56.803Z,95513.03
2019-05-20T18:54:26.758Z,95514.88
2019-05-20T18:56:56.743Z,95510.42
2019-05-20T18:59:26.652Z,95508.52
2019-05-20T19:02:04.994Z,95513.13
2019-05-20T19:04:28.393Z,95506.87
2019-05-20T19:06:58.399Z,95511.87
2019-05-20T19:09:28.774Z,95516.16
2019-05-20T19:11:58.652Z,95512.45
2019-05-20T19:14:29.236Z,95514.75
2019-05-20T19:16:59.518Z,95508.30
2019-05-20T19:19:31.780Z,95508.81
2019-05-20T19:22:03.135Z,95518.40
2019-05-20T19:24:33.082Z,95520.89
2019-05-20T19:27:03.512Z,95523.89
2019-05-20T19:29:33.523Z,95522.62
2019-05-20T23:09:07.381Z,95628.99
2019-05-20T23:11:37.445Z,95625.56
2019-05-20T23:14:07.533Z,95627.15
2019-05-20T23:16:37.654Z,95624.17
2019-05-20T23:19:07.754Z,95622.52
2019-05-20T23:21:37.907Z,95617.19
2019-05-20T23:24:08.093Z,95618.13
2019-05-20T23:26:38.237Z,95613.42
2019-05-20T23:29:08.226Z,95624.55
2019-05-20T23:31:38.159Z,95626.91
2019-05-20T23:34:12.660Z,95627.81
2019-05-20T23:36:40.383Z,95629.91
2019-05-20T23:39:10.772Z,95626.65
2019-05-20T23:41:41.013Z,95623.58
2019-05-20T23:44:12.756Z,95628.89
2019-05-20T23:46:43.066Z,95632.30
2019-05-20T23:49:13.275Z,95636.66
2019-05-20T23:51:43.900Z,95632.15
2019-05-20T23:54:14.323Z,95630.05
2019-05-20T23:56:44.763Z,95636.21
2019-05-20T23:59:15.054Z,95633.51
